Terminal Aerodrome Forecast
Issued by NWS Raleigh/Durham, NC

Home | Current Version | Previous Version | Text Only | Print | Product List | Glossary On
Versions: 1 2 3 4 5 6 7 8 9 10 11 12 13 14 15 16 17 18 19 20 21 22 23 24 25 26 27 28 29
000
FTUS42 KRAH 280520
TAFGSO
TAF
KGSO 280520Z 2806/2906 20007KT P6SM OVC100
     FM281000 VRB03KT P6SM VCSH OVC050
      TEMPO 2813/2815 4SM +SHRA BR OVC015
     FM281500 06005KT 6SM +RA BR OVC015
     FM290100 07005KT 4SM +RA BR OVC003=

USA.gov is the U.S. government's official web portal to all federal, state and local government web resources and services.